Time;durP1;ratioP1;P1;durP2;ratioP2;P2;SDS_P1;SDS_P2;PMS_P1;PMS_P2;Temp;Humidity;BMP_temperature;BMP_pressure;BME280_temperature;BME280_humidity;BME280_pressure;Samples;Min_cycle;Max_cycle;Signal;HPM_P1;HPM_P2
2021/10/30 00:00:21;;;;;;;8.87;6.40;;;14.10;99.90;;;;;;5027495;28;20350;-46
2021/10/30 00:02:47;;;;;;;8.17;6.43;;;14.20;99.90;;;;;;5026586;28;20460;-47
2021/10/30 00:05:13;;;;;;;7.20;6.30;;;14.20;99.90;;;;;;5027708;28;20912;-46
2021/10/30 00:07:39;;;;;;;11.50;6.17;;;14.10;99.90;;;;;;5027431;28;20221;-48
2021/10/30 00:10:06;;;;;;;6.83;6.13;;;14.10;99.90;;;;;;5023674;28;20802;-45
2021/10/30 00:12:32;;;;;;;8.10;6.50;;;14.10;99.90;;;;;;5020814;28;21176;-50
2021/10/30 00:14:58;;;;;;;8.00;6.97;;;14.10;99.90;;;;;;5026766;28;20441;-46
2021/10/30 00:17:23;;;;;;;7.43;6.60;;;14.00;99.90;;;;;;5025642;28;20830;-45
2021/10/30 00:19:49;;;;;;;7.00;6.27;;;14.00;99.90;;;;;;5027259;28;20291;-45
2021/10/30 00:22:16;;;;;;;7.17;6.43;;;14.00;99.90;;;;;;5027312;28;20194;-46
2021/10/30 00:24:42;;;;;;;8.03;6.70;;;14.00;99.90;;;;;;5026307;28;20206;-48
2021/10/30 00:27:10;;;;;;;7.93;6.50;;;14.00;99.90;;;;;;5016420;28;20834;-48
2021/10/30 00:29:39;;;;;;;8.17;7.23;;;13.90;99.90;;;;;;5027174;28;20429;-46
2021/10/30 00:32:05;;;;;;;7.57;6.27;;;13.90;99.90;;;;;;5027191;28;21010;-45
2021/10/30 00:34:31;;;;;;;7.97;6.53;;;13.90;99.90;;;;;;5026196;28;20425;-46
2021/10/30 00:36:57;;;;;;;7.20;6.50;;;13.90;99.90;;;;;;5026890;28;20440;-45
2021/10/30 00:39:22;;;;;;;10.10;6.70;;;13.90;99.90;;;;;;5026728;28;20221;-46
2021/10/30 00:41:50;;;;;;;9.30;6.13;;;13.80;99.90;;;;;;5016480;28;20673;-48
2021/10/30 00:44:17;;;;;;;8.50;7.00;;;13.80;99.90;;;;;;5025500;28;20254;-46
2021/10/30 00:46:48;;;;;;;7.17;6.00;;;13.70;99.90;;;;;;5026536;28;20433;-48
2021/10/30 00:49:16;;;;;;;8.40;6.20;;;13.80;99.90;;;;;;5026537;28;21011;-48
2021/10/30 00:51:45;;;;;;;7.30;6.13;;;13.70;99.90;;;;;;5026629;28;20417;-49
2021/10/30 00:54:12;;;;;;;7.10;6.33;;;13.70;99.90;;;;;;5025908;28;20444;-45
2021/10/30 00:56:40;;;;;;;7.03;6.33;;;13.80;99.90;;;;;;5017081;28;20543;-46
2021/10/30 00:59:11;;;;;;;8.70;6.10;;;13.80;99.90;;;;;;5026557;28;20468;-45
2021/10/30 01:01:38;;;;;;;10.23;6.90;;;13.70;99.90;;;;;;5026530;28;20475;-46
2021/10/30 01:04:05;;;;;;;10.63;6.30;;;13.70;99.90;;;;;;5025679;28;20512;-48
2021/10/30 01:06:36;;;;;;;9.63;5.83;;;13.70;99.90;;;;;;5026320;28;20422;-45
2021/10/30 01:09:03;;;;;;;6.50;5.87;;;13.70;99.90;;;;;;5026319;28;20836;-47
2021/10/30 01:11:29;;;;;;;6.50;5.80;;;13.70;99.90;;;;;;5016573;28;20559;-47
2021/10/30 01:13:56;;;;;;;8.53;6.50;;;13.70;99.90;;;;;;5022009;28;20592;-45
2021/10/30 01:16:22;;;;;;;7.30;5.30;;;13.70;99.90;;;;;;5011288;28;20442;-45
2021/10/30 01:18:48;;;;;;;7.13;5.80;;;13.60;99.90;;;;;;5006552;28;20454;-45
2021/10/30 01:21:23;;;;;;;7.33;6.03;;;13.70;99.90;;;;;;5016524;28;20516;-45
2021/10/30 01:23:49;;;;;;;6.13;5.53;;;13.70;99.90;;;;;;5025529;28;20918;-45
2021/10/30 01:26:16;;;;;;;7.60;6.40;;;13.70;99.90;;;;;;5025298;28;20421;-46
2021/10/30 01:28:41;;;;;;;6.57;5.87;;;13.70;99.90;;;;;;5012098;28;20761;-48
2021/10/30 01:31:07;;;;;;;7.50;6.30;;;13.70;99.90;;;;;;5013621;28;20480;-46
2021/10/30 01:33:33;;;;;;;6.77;5.73;;;13.70;99.90;;;;;;5005678;28;20191;-46
2021/10/30 01:36:06;;;;;;;7.70;6.40;;;13.70;99.90;;;;;;5011803;28;20197;-48
2021/10/30 01:38:32;;;;;;;7.00;6.27;;;13.70;99.90;;;;;;5005511;28;20214;-45
2021/10/30 01:40:58;;;;;;;7.93;5.27;;;13.60;99.90;;;;;;5009798;28;20432;-45
2021/10/30 01:43:23;;;;;;;8.17;5.63;;;13.60;99.90;;;;;;5013163;28;20230;-45
2021/10/30 01:45:49;;;;;;;6.13;5.53;;;13.70;99.90;;;;;;5022445;28;20236;-46
2021/10/30 01:48:16;;;;;;;6.50;5.80;;;13.70;99.90;;;;;;5006437;28;20539;-46
2021/10/30 01:50:42;;;;;;;7.13;5.73;;;13.70;99.90;;;;;;5007787;28;20501;-45
2021/10/30 01:53:09;;;;;;;7.87;5.70;;;13.60;99.90;;;;;;5004671;28;20533;-44
2021/10/30 01:55:38;;;;;;;6.53;5.40;;;13.70;99.90;;;;;;5017555;28;20417;-45
2021/10/30 01:58:06;;;;;;;6.47;5.27;;;13.60;99.90;;;;;;5012044;28;20471;-45
2021/10/30 02:00:33;;;;;;;6.30;5.43;;;13.60;99.90;;;;;;5016648;28;20483;-47
2021/10/30 02:02:59;;;;;;;5.40;4.90;;;13.70;99.90;;;;;;5005796;28;20840;-50
2021/10/30 02:05:24;;;;;;;5.67;5.10;;;13.60;99.90;;;;;;5016329;28;20492;-46
2021/10/30 02:07:50;;;;;;;5.50;4.87;;;13.70;99.90;;;;;;5016127;28;20183;-46
2021/10/30 02:10:16;;;;;;;7.07;5.00;;;13.70;99.90;;;;;;5005937;28;20183;-46
2021/10/30 02:12:43;;;;;;;6.67;5.30;;;13.70;99.90;;;;;;5015822;28;20227;-49
2021/10/30 02:15:10;;;;;;;6.67;5.57;;;13.70;99.90;;;;;;5014186;28;20414;-45
2021/10/30 02:17:36;;;;;;;5.80;5.20;;;13.70;99.90;;;;;;5005646;28;20426;-48
2021/10/30 02:20:04;;;;;;;6.50;5.50;;;13.70;99.90;;;;;;5012162;28;20456;-50
2021/10/30 02:22:29;;;;;;;6.50;4.93;;;13.80;99.90;;;;;;5006201;28;20418;-50
2021/10/30 02:24:55;;;;;;;6.60;5.70;;;13.70;99.90;;;;;;5004695;28;20461;-46
2021/10/30 02:27:21;;;;;;;6.10;5.07;;;13.70;99.90;;;;;;5013600;28;20198;-47
2021/10/30 02:29:47;;;;;;;6.23;4.70;;;13.70;99.90;;;;;;5021377;28;20621;-45
2021/10/30 02:32:13;;;;;;;5.50;4.77;;;13.70;99.90;;;;;;5016537;28;20468;-45
2021/10/30 02:34:40;;;;;;;5.13;4.63;;;13.70;99.90;;;;;;5007046;28;20198;-46
2021/10/30 02:37:06;;;;;;;6.70;5.10;;;13.70;99.90;;;;;;5005691;28;20430;-46
2021/10/30 02:39:32;;;;;;;6.07;5.00;;;13.70;99.90;;;;;;5003841;28;20559;-45
2021/10/30 02:41:57;;;;;;;6.00;4.90;;;13.60;99.90;;;;;;5008059;28;20446;-45
2021/10/30 02:44:23;;;;;;;6.50;5.07;;;13.70;99.90;;;;;;5019446;28;20287;-50
2021/10/30 02:46:49;;;;;;;7.80;5.00;;;13.60;99.90;;;;;;5012351;28;20207;-46
2021/10/30 02:49:17;;;;;;;5.60;5.10;;;13.70;99.90;;;;;;5005565;28;20749;-45
2021/10/30 02:51:42;;;;;;;10.33;5.50;;;13.70;99.90;;;;;;5017152;28;20199;-53
2021/10/30 02:54:09;;;;;;;6.97;4.97;;;13.70;99.90;;;;;;5005543;28;20855;-45
2021/10/30 02:56:35;;;;;;;6.60;5.50;;;13.70;99.90;;;;;;5023518;28;20191;-45
2021/10/30 02:59:00;;;;;;;4.60;4.10;;;13.70;99.90;;;;;;5012312;28;20981;-47
2021/10/30 03:01:26;;;;;;;10.03;5.30;;;13.70;99.90;;;;;;5013042;28;20452;-48
2021/10/30 03:03:52;;;;;;;5.23;4.63;;;13.70;99.90;;;;;;5004638;28;20560;-45
2021/10/30 03:06:21;;;;;;;5.90;5.27;;;13.60;99.90;;;;;;5019010;28;20607;-49
2021/10/30 03:08:47;;;;;;;6.70;5.37;;;13.60;99.90;;;;;;5014157;28;20294;-46
2021/10/30 03:11:13;;;;;;;6.70;5.20;;;13.60;99.90;;;;;;5009828;28;20437;-49
2021/10/30 03:13:38;;;;;;;6.80;4.80;;;13.60;99.90;;;;;;5016768;28;20417;-48
2021/10/30 03:16:04;;;;;;;6.00;5.00;;;13.60;99.90;;;;;;5022063;28;20421;-47
2021/10/30 03:18:30;;;;;;;5.67;5.10;;;13.60;99.90;;;;;;5012538;28;20366;-45
2021/10/30 03:20:56;;;;;;;5.53;4.90;;;13.60;99.90;;;;;;5012372;28;20434;-47
2021/10/30 03:23:21;;;;;;;5.33;4.83;;;13.60;99.90;;;;;;5007820;28;20202;-47
2021/10/30 03:25:47;;;;;;;5.57;4.90;;;13.60;99.90;;;;;;5008741;28;20627;-47
2021/10/30 03:28:12;;;;;;;6.30;4.90;;;13.60;99.90;;;;;;5020179;28;20186;-46
2021/10/30 03:30:42;;;;;;;5.50;4.50;;;13.70;99.90;;;;;;5014606;28;20621;-47
2021/10/30 03:33:07;;;;;;;6.03;4.83;;;13.60;99.90;;;;;;5012859;28;20195;-45
2021/10/30 03:35:33;;;;;;;6.90;4.50;;;13.60;99.90;;;;;;5015891;28;20452;-47
2021/10/30 03:37:59;;;;;;;9.37;5.60;;;13.70;99.90;;;;;;5013764;28;20889;-45
2021/10/30 03:40:24;;;;;;;6.80;5.50;;;13.70;99.90;;;;;;5008521;28;20194;-46
2021/10/30 03:42:50;;;;;;;7.57;5.33;;;13.70;99.90;;;;;;5015383;28;20221;-46
2021/10/30 03:45:16;;;;;;;5.47;4.97;;;13.70;99.90;;;;;;5010366;28;20180;-45
2021/10/30 03:47:42;;;;;;;5.70;4.63;;;13.70;99.90;;;;;;5008445;28;20245;-50
2021/10/30 03:50:08;;;;;;;6.77;5.43;;;13.60;99.90;;;;;;5011120;28;20210;-46
2021/10/30 03:52:34;;;;;;;7.13;5.53;;;13.70;99.90;;;;;;5013604;28;20665;-50
2021/10/30 03:55:00;;;;;;;6.23;4.90;;;13.70;99.90;;;;;;5015905;28;20421;-47
2021/10/30 03:57:25;;;;;;;6.43;5.17;;;13.70;99.90;;;;;;5019331;28;20560;-47
2021/10/30 03:59:51;;;;;;;6.50;5.07;;;13.70;99.90;;;;;;5021239;28;20245;-45
2021/10/30 04:02:18;;;;;;;6.17;5.00;;;13.70;99.90;;;;;;5025684;28;20244;-47
2021/10/30 04:04:44;;;;;;;5.87;5.10;;;13.70;99.90;;;;;;5007094;28;20237;-46
2021/10/30 04:07:10;;;;;;;5.97;4.33;;;13.70;99.90;;;;;;5022375;28;20441;-46
2021/10/30 04:09:36;;;;;;;5.90;4.63;;;13.70;99.90;;;;;;5007922;28;20214;-45
2021/10/30 04:12:02;;;;;;;5.63;5.03;;;13.70;99.90;;;;;;5010430;28;20667;-48
2021/10/30 04:14:28;;;;;;;5.07;4.57;;;13.70;99.90;;;;;;5018549;28;20221;-49
2021/10/30 04:16:53;;;;;;;5.70;4.97;;;13.70;99.90;;;;;;5017013;28;20470;-47
2021/10/30 04:19:19;;;;;;;7.87;5.00;;;13.70;99.90;;;;;;5007505;28;20325;-46
2021/10/30 04:21:45;;;;;;;6.00;5.10;;;13.80;99.90;;;;;;5007930;28;20191;-51
2021/10/30 04:24:11;;;;;;;5.10;4.60;;;13.70;99.90;;;;;;5007017;28;20534;-45
2021/10/30 04:26:37;;;;;;;7.43;5.80;;;13.70;99.90;;;;;;5006709;28;20197;-45
2021/10/30 04:29:04;;;;;;;5.47;4.97;;;13.70;99.90;;;;;;5017543;28;20438;-46
2021/10/30 04:31:30;;;;;;;5.80;5.17;;;13.70;99.90;;;;;;5016054;28;20429;-51
2021/10/30 04:34:00;;;;;;;5.80;5.30;;;13.70;99.90;;;;;;5006973;28;20465;-47
2021/10/30 04:36:28;;;;;;;5.40;4.60;;;13.70;99.90;;;;;;5016830;28;20417;-46
2021/10/30 04:38:54;;;;;;;10.10;5.00;;;13.70;99.90;;;;;;5007497;28;20466;-45
2021/10/30 04:41:21;;;;;;;6.20;4.90;;;13.70;99.90;;;;;;5006891;28;20509;-47
2021/10/30 04:43:48;;;;;;;6.30;5.63;;;13.70;99.90;;;;;;5017265;28;20495;-45
2021/10/30 04:46:14;;;;;;;5.50;4.83;;;13.70;99.90;;;;;;5016025;28;20417;-48
2021/10/30 04:48:40;;;;;;;5.33;4.83;;;13.60;99.90;;;;;;5018460;28;20440;-46
2021/10/30 04:51:07;;;;;;;5.97;5.30;;;13.60;99.90;;;;;;5011505;28;20429;-46
2021/10/30 04:53:37;;;;;;;6.57;5.37;;;13.60;99.90;;;;;;5006396;28;20430;-44
2021/10/30 04:56:04;;;;;;;6.10;5.50;;;13.60;99.90;;;;;;5022950;28;21092;-45
2021/10/30 04:58:30;;;;;;;6.40;5.30;;;13.60;99.90;;;;;;5024119;28;20483;-45
2021/10/30 05:00:58;;;;;;;5.87;5.37;;;13.60;99.90;;;;;;5022058;28;20485;-45
2021/10/30 05:03:24;;;;;;;7.33;5.90;;;13.50;99.90;;;;;;5014344;28;20422;-50
2021/10/30 05:05:51;;;;;;;6.30;5.70;;;13.50;99.90;;;;;;5009540;28;20504;-46
2021/10/30 05:08:16;;;;;;;8.40;6.67;;;13.40;99.90;;;;;;5016120;28;20464;-45
2021/10/30 05:10:42;;;;;;;7.40;5.80;;;13.40;99.90;;;;;;5006330;28;20933;-45
2021/10/30 05:13:08;;;;;;;6.70;6.00;;;13.40;99.90;;;;;;5013286;28;20240;-44
2021/10/30 05:15:35;;;;;;;7.00;5.27;;;13.30;99.90;;;;;;5020261;28;20222;-50
2021/10/30 05:18:00;;;;;;;5.37;4.87;;;13.30;99.90;;;;;;5011937;28;20863;-48
2021/10/30 05:20:27;;;;;;;8.43;7.27;;;13.30;99.90;;;;;;5006496;28;20545;-48
2021/10/30 05:22:53;;;;;;;6.90;6.00;;;13.20;99.90;;;;;;5013171;28;20254;-50
2021/10/30 05:25:19;;;;;;;8.23;6.00;;;13.20;99.90;;;;;;5006211;28;20766;-46
2021/10/30 05:27:44;;;;;;;6.43;5.17;;;13.10;99.90;;;;;;5007306;28;20179;-46
2021/10/30 05:30:10;;;;;;;6.87;5.67;;;13.10;99.90;;;;;;5017751;28;20210;-46
2021/10/30 05:32:36;;;;;;;8.53;6.20;;;13.10;99.90;;;;;;5015288;28;20960;-45
2021/10/30 05:35:02;;;;;;;8.10;5.70;;;13.10;99.90;;;;;;5004691;28;20454;-45
2021/10/30 05:37:28;;;;;;;5.97;5.37;;;13.10;99.90;;;;;;5012031;28;20191;-47
2021/10/30 05:39:53;;;;;;;7.10;6.33;;;13.00;99.90;;;;;;5005963;28;20905;-47
2021/10/30 05:42:19;;;;;;;6.13;4.93;;;12.90;99.90;;;;;;5006056;28;20616;-45
2021/10/30 05:44:46;;;;;;;6.67;5.33;;;12.90;99.90;;;;;;5012477;28;20187;-45
2021/10/30 05:47:12;;;;;;;7.33;6.60;;;12.90;99.90;;;;;;5013313;28;20222;-45
2021/10/30 05:49:40;;;;;;;7.70;6.17;;;12.80;99.90;;;;;;5006171;28;20426;-46
2021/10/30 05:52:07;;;;;;;8.13;6.80;;;12.80;99.90;;;;;;5006914;28;20488;-46
2021/10/30 05:54:33;;;;;;;7.00;6.30;;;12.80;99.90;;;;;;5005165;28;20411;-45
2021/10/30 05:56:59;;;;;;;7.00;6.17;;;12.80;99.90;;;;;;5005874;28;21002;-45
2021/10/30 05:59:30;;;;;;;6.70;5.47;;;12.80;99.90;;;;;;5014759;28;20465;-44
2021/10/30 06:01:55;;;;;;;9.13;5.73;;;12.80;99.90;;;;;;5010476;28;20463;-50
2021/10/30 06:04:21;;;;;;;6.60;5.50;;;12.80;99.90;;;;;;5005296;28;20848;-48
2021/10/30 06:06:47;;;;;;;6.30;5.70;;;12.80;99.90;;;;;;5006284;28;20241;-49
2021/10/30 06:09:13;;;;;;;7.23;6.47;;;12.70;99.90;;;;;;5005446;28;20446;-47
2021/10/30 06:11:38;;;;;;;6.17;5.57;;;12.80;99.90;;;;;;5006346;28;20430;-48
2021/10/30 06:14:06;;;;;;;8.30;5.70;;;12.80;99.90;;;;;;5011767;28;20187;-46
2021/10/30 06:16:33;;;;;;;5.67;5.17;;;12.70;99.90;;;;;;5018570;28;20261;-48
2021/10/30 06:18:58;;;;;;;6.73;5.30;;;12.60;99.90;;;;;;5006476;28;20484;-47
2021/10/30 06:21:26;;;;;;;7.53;5.20;;;12.70;99.90;;;;;;5009984;28;20508;-47
2021/10/30 06:23:58;;;;;;;5.47;4.90;;;12.70;99.90;;;;;;5006253;28;20194;-45
2021/10/30 06:26:28;;;;;;;6.03;5.53;;;12.80;99.90;;;;;;5005917;28;20453;-45
2021/10/30 06:28:54;;;;;;;5.37;4.87;;;12.80;99.90;;;;;;5013237;28;20436;-45
2021/10/30 06:31:21;;;;;;;6.20;5.10;;;12.80;99.90;;;;;;5016487;28;20504;-45
2021/10/30 06:33:47;;;;;;;6.57;5.90;;;12.80;99.90;;;;;;5015892;28;21014;-46
2021/10/30 06:36:12;;;;;;;5.67;5.17;;;12.90;99.90;;;;;;5016731;28;20436;-48
2021/10/30 06:38:38;;;;;;;6.13;5.47;;;12.80;99.90;;;;;;5010390;28;20211;-47
2021/10/30 06:41:06;;;;;;;7.00;5.93;;;12.80;99.90;;;;;;5006134;28;20191;-45
2021/10/30 06:43:33;;;;;;;6.37;5.30;;;12.80;99.90;;;;;;5008624;28;20467;-45
2021/10/30 06:45:59;;;;;;;5.90;5.30;;;12.90;99.90;;;;;;5019660;28;20413;-48
2021/10/30 06:48:25;;;;;;;6.77;5.70;;;12.90;99.90;;;;;;5019490;28;20441;-49
2021/10/30 06:50:53;;;;;;;8.37;6.17;;;12.80;99.90;;;;;;5020596;28;20546;-45
2021/10/30 06:53:19;;;;;;;7.10;5.80;;;12.80;99.90;;;;;;5016767;28;20418;-49
2021/10/30 06:55:46;;;;;;;9.07;6.60;;;12.80;99.90;;;;;;5022841;28;20413;-51
2021/10/30 06:58:12;;;;;;;10.00;6.27;;;12.70;99.90;;;;;;5028200;28;20225;-47
2021/10/30 07:00:38;;;;;;;6.30;5.70;;;12.70;99.90;;;;;;5016944;28;20856;-47
2021/10/30 07:03:06;;;;;;;7.30;6.03;;;12.70;99.90;;;;;;5026994;28;20191;-49
2021/10/30 07:05:32;;;;;;;9.83;6.30;;;12.60;99.90;;;;;;5013857;28;20201;-50
2021/10/30 07:07:58;;;;;;;9.80;6.27;;;12.60;99.90;;;;;;5012569;28;20426;-45
2021/10/30 07:10:24;;;;;;;6.23;5.43;;;12.60;99.90;;;;;;5009230;28;20633;-45
2021/10/30 07:12:49;;;;;;;7.33;6.47;;;12.60;99.90;;;;;;5007469;28;20193;-45
2021/10/30 07:15:15;;;;;;;6.83;6.20;;;12.60;99.90;;;;;;5020860;28;20665;-48
2021/10/30 07:17:41;;;;;;;8.90;5.90;;;12.60;99.90;;;;;;5025025;28;20193;-48
2021/10/30 07:20:08;;;;;;;6.70;5.87;;;12.50;99.90;;;;;;5027053;28;20217;-45
2021/10/30 07:22:47;;;;;;;7.30;6.60;;;12.60;99.90;;;;;;5024906;28;20417;-48
2021/10/30 07:25:15;;;;;;;7.87;6.10;;;12.60;99.90;;;;;;5024792;28;20409;-46
2021/10/30 07:27:41;;;;;;;7.53;5.83;;;12.60;99.90;;;;;;5016959;28;20940;-45
2021/10/30 07:30:09;;;;;;;6.53;5.70;;;12.60;99.90;;;;;;5013592;28;20717;-45
2021/10/30 07:32:35;;;;;;;6.83;6.00;;;12.60;99.90;;;;;;5017656;28;20484;-51
2021/10/30 07:35:02;;;;;;;10.00;5.80;;;12.60;99.90;;;;;;5009294;28;20429;-49
2021/10/30 07:37:28;;;;;;;7.17;5.97;;;12.60;99.90;;;;;;5019326;28;20573;-51
2021/10/30 07:39:54;;;;;;;6.63;5.93;;;12.60;99.90;;;;;;5021039;28;20536;-46
2021/10/30 07:42:19;;;;;;;7.00;5.97;;;12.60;99.90;;;;;;5028664;28;20436;-45
2021/10/30 07:44:45;;;;;;;7.07;6.20;;;12.60;99.90;;;;;;5029163;28;20261;-47
2021/10/30 07:47:12;;;;;;;6.23;5.63;;;12.60;99.90;;;;;;5027861;28;20175;-46
2021/10/30 07:49:38;;;;;;;6.70;5.73;;;12.50;99.90;;;;;;5017954;28;20206;-46
2021/10/30 07:52:05;;;;;;;6.80;6.10;;;12.50;99.90;;;;;;5010264;28;20428;-48
2021/10/30 07:54:32;;;;;;;6.50;5.70;;;12.50;99.90;;;;;;5014054;28;20417;-45
2021/10/30 07:56:58;;;;;;;5.73;5.10;;;12.60;99.90;;;;;;5027982;28;20832;-49
2021/10/30 07:59:24;;;;;;;5.97;5.47;;;12.60;99.90;;;;;;5026722;28;20461;-46
2021/10/30 08:01:50;;;;;;;10.27;5.83;;;12.70;99.90;;;;;;5012920;28;20711;-45
2021/10/30 08:04:17;;;;;;;5.87;5.27;;;12.60;99.90;;;;;;5013174;28;20496;-48
2021/10/30 08:06:44;;;;;;;6.47;5.17;;;12.60;99.90;;;;;;5028760;28;20456;-45
2021/10/30 08:09:10;;;;;;;6.57;5.87;;;12.60;99.90;;;;;;5018711;28;20437;-46
2021/10/30 08:11:35;;;;;;;7.30;6.03;;;12.60;99.90;;;;;;5016541;28;20994;-45
2021/10/30 08:14:04;;;;;;;7.77;5.80;;;12.60;99.90;;;;;;5006080;28;20199;-47
2021/10/30 08:16:29;;;;;;;7.47;6.07;;;12.60;99.90;;;;;;5007922;28;20210;-45
2021/10/30 08:18:56;;;;;;;6.00;5.40;;;12.60;99.90;;;;;;5013702;28;20567;-45
2021/10/30 08:21:22;;;;;;;6.63;5.80;;;12.60;99.90;;;;;;5007716;28;20230;-49
2021/10/30 08:23:49;;;;;;;6.60;5.97;;;12.70;99.90;;;;;;5018031;28;20462;-50
2021/10/30 08:26:15;;;;;;;6.70;6.00;;;12.70;99.90;;;;;;5007289;28;20892;-45
2021/10/30 08:28:41;;;;;;;7.07;5.77;;;12.70;99.90;;;;;;5008402;28;21179;-45
2021/10/30 08:31:07;;;;;;;6.00;5.07;;;12.80;99.90;;;;;;5017430;28;20426;-45
2021/10/30 08:33:33;;;;;;;10.20;5.07;;;12.80;99.90;;;;;;5013005;28;20194;-45
2021/10/30 08:35:59;;;;;;;6.30;5.30;;;12.80;99.90;;;;;;5007085;28;20457;-46
2021/10/30 08:38:25;;;;;;;6.33;5.63;;;12.80;99.90;;;;;;5015107;28;20466;-50
2021/10/30 08:40:52;;;;;;;5.47;4.97;;;12.90;99.90;;;;;;5007024;28;20223;-50
2021/10/30 08:43:20;;;;;;;7.80;5.60;;;12.80;99.90;;;;;;5006408;28;20206;-45
2021/10/30 08:45:47;;;;;;;5.60;5.07;;;12.90;99.90;;;;;;5022196;28;20483;-45
2021/10/30 08:48:13;;;;;;;8.80;5.70;;;12.90;99.90;;;;;;5022158;28;20777;-45
2021/10/30 08:50:39;;;;;;;6.97;5.33;;;12.80;99.90;;;;;;5015862;28;20434;-46
2021/10/30 08:53:05;;;;;;;6.13;4.97;;;12.80;99.90;;;;;;5010178;28;20932;-45
2021/10/30 08:55:31;;;;;;;7.30;5.37;;;12.90;99.90;;;;;;5018827;28;20197;-48
2021/10/30 08:58:05;;;;;;;5.43;4.93;;;12.90;99.90;;;;;;5026200;28;20754;-48
2021/10/30 09:00:31;;;;;;;6.13;5.53;;;12.90;99.90;;;;;;5019190;28;20771;-46
2021/10/30 09:03:06;;;;;;;6.70;4.30;;;12.90;99.90;;;;;;5021220;28;20660;-45
2021/10/30 09:05:33;;;;;;;7.17;5.27;;;12.90;99.90;;;;;;5006521;28;20634;-51
2021/10/30 09:08:01;;;;;;;7.17;5.40;;;12.90;99.90;;;;;;5023101;28;20417;-51
2021/10/30 09:10:35;;;;;;;5.60;4.73;;;12.90;99.90;;;;;;5032670;28;20908;-47
2021/10/30 09:13:06;;;;;;;6.60;5.13;;;12.90;99.90;;;;;;5026347;28;21052;-45
2021/10/30 09:15:34;;;;;;;5.93;4.57;;;12.90;99.90;;;;;;5010920;28;20487;-48
2021/10/30 09:18:02;;;;;;;5.43;4.90;;;13.00;99.90;;;;;;5015589;28;20427;-49
2021/10/30 09:20:33;;;;;;;5.33;4.83;;;13.00;99.90;;;;;;5015328;28;20715;-48
2021/10/30 09:22:59;;;;;;;5.10;4.40;;;13.00;99.90;;;;;;5019499;28;20424;-47
2021/10/30 09:25:24;;;;;;;4.33;3.93;;;13.00;99.90;;;;;;5008597;28;20510;-47
2021/10/30 09:27:56;;;;;;;6.37;4.47;;;13.10;99.90;;;;;;5006381;28;20505;-45
2021/10/30 09:30:25;;;;;;;4.47;3.87;;;13.10;99.90;;;;;;5013632;28;20193;-48
2021/10/30 09:33:09;;;;;;;8.13;4.37;;;13.20;99.90;;;;;;5016451;28;20418;-48
2021/10/30 09:35:43;;;;;;;5.00;3.97;;;13.30;99.90;;;;;;5006279;28;20425;-46
2021/10/30 09:38:21;;;;;;;6.30;4.10;;;13.30;99.90;;;;;;5010744;28;20532;-46
2021/10/30 09:40:47;;;;;;;4.30;3.90;;;13.30;99.90;;;;;;5008142;28;20432;-45
2021/10/30 09:43:17;;;;;;;7.37;5.83;;;13.40;99.90;;;;;;5005498;28;20820;-45
2021/10/30 09:45:54;;;;;;;4.90;4.40;;;13.40;99.90;;;;;;5018662;28;20962;-45
2021/10/30 09:48:23;;;;;;;6.67;4.30;;;13.40;99.90;;;;;;5019708;28;20918;-49
2021/10/30 09:51:01;;;;;;;5.17;4.40;;;13.50;99.90;;;;;;5012679;28;20488;-46
2021/10/30 09:53:39;;;;;;;4.90;4.07;;;13.50;99.90;;;;;;5013245;28;20460;-48
2021/10/30 09:56:06;;;;;;;4.40;4.00;;;13.60;99.90;;;;;;5026183;28;20439;-47
2021/10/30 09:58:38;;;;;;;10.17;5.27;;;13.60;99.90;;;;;;5023875;28;20465;-48
2021/10/30 10:01:12;;;;;;;5.93;4.40;;;13.60;99.90;;;;;;5013117;28;20446;-48
2021/10/30 10:03:40;;;;;;;6.20;5.00;;;13.50;99.90;;;;;;5019971;28;20417;-49
2021/10/30 10:06:08;;;;;;;5.47;4.43;;;13.60;99.90;;;;;;5008559;28;20465;-48
2021/10/30 10:08:37;;;;;;;5.17;4.67;;;13.50;99.90;;;;;;5019756;28;20504;-46
2021/10/30 10:11:06;;;;;;;6.37;4.80;;;13.50;99.90;;;;;;5005860;28;20541;-46
2021/10/30 10:13:35;;;;;;;7.27;4.93;;;13.60;99.90;;;;;;5004252;28;20721;-45
2021/10/30 10:16:02;;;;;;;6.30;4.90;;;13.60;99.90;;;;;;5016126;28;20796;-48
2021/10/30 10:18:28;;;;;;;7.07;5.80;;;13.60;99.90;;;;;;5019496;28;21023;-45
2021/10/30 10:20:55;;;;;;;5.93;5.10;;;13.60;99.90;;;;;;5022150;28;20429;-48
2021/10/30 10:23:21;;;;;;;5.07;4.57;;;13.60;99.90;;;;;;5013607;28;20421;-47
2021/10/30 10:25:50;;;;;;;6.40;5.63;;;13.60;99.90;;;;;;5009770;28;20425;-49
2021/10/30 10:28:22;;;;;;;5.27;4.70;;;13.60;99.90;;;;;;5020545;28;20440;-46
2021/10/30 10:31:12;;;;;;;8.87;5.30;;;13.60;99.90;;;;;;5023022;28;20410;-48
2021/10/30 10:33:40;;;;;;;4.57;4.17;;;13.60;99.90;;;;;;5012570;28;20859;-46
2021/10/30 10:36:19;;;;;;;6.70;5.27;;;13.60;99.90;;;;;;5013806;28;20464;-48
2021/10/30 10:38:56;;;;;;;5.77;5.17;;;13.60;99.90;;;;;;5021411;28;20465;-46
2021/10/30 10:41:37;;;;;;;5.60;4.90;;;13.60;99.90;;;;;;5023616;28;20428;-47
2021/10/30 10:44:12;;;;;;;8.53;5.17;;;13.60;99.90;;;;;;5016512;28;20713;-47
2021/10/30 10:46:40;;;;;;;8.53;5.40;;;13.60;99.90;;;;;;5019150;28;20429;-44
2021/10/30 10:49:23;;;;;;;6.60;5.40;;;13.60;99.90;;;;;;5015461;28;20497;-49
2021/10/30 10:52:02;;;;;;;6.27;5.67;;;13.60;99.90;;;;;;5025306;28;20431;-45
2021/10/30 10:54:58;;;;;;;5.90;5.10;;;13.60;99.90;;;;;;5022481;28;20416;-46
2021/10/30 10:57:28;;;;;;;5.93;5.23;;;13.50;99.90;;;;;;5013616;28;20531;-46
2021/10/30 11:00:06;;;;;;;6.17;5.57;;;13.50;99.90;;;;;;5007988;28;20540;-46
2021/10/30 11:02:37;;;;;;;6.17;4.60;;;13.50;99.90;;;;;;5016548;28;20436;-44
2021/10/30 11:05:08;;;;;;;7.00;5.40;;;13.40;99.90;;;;;;5026494;28;20418;-44
2021/10/30 11:07:36;;;;;;;6.30;5.57;;;13.40;99.90;;;;;;5019932;28;20445;-48
2021/10/30 11:10:06;;;;;;;6.43;5.73;;;13.40;99.90;;;;;;5018552;28;20421;-44
2021/10/30 11:12:32;;;;;;;5.93;5.33;;;13.40;99.90;;;;;;5024706;28;20421;-43
2021/10/30 11:15:14;;;;;;;6.50;5.37;;;13.30;99.90;;;;;;5025040;28;20512;-45
2021/10/30 11:18:12;;;;;;;8.00;5.83;;;13.30;99.90;;;;;;5023431;28;20900;-44
2021/10/30 11:20:47;;;;;;;6.10;5.40;;;13.30;99.90;;;;;;5022052;28;20870;-45
2021/10/30 11:23:29;;;;;;;8.13;5.80;;;13.20;99.90;;;;;;5024670;28;20484;-46
2021/10/30 11:26:03;;;;;;;5.37;4.87;;;13.20;99.90;;;;;;5007662;28;20868;-45
2021/10/30 11:28:32;;;;;;;5.70;5.10;;;13.20;99.90;;;;;;5007599;28;20541;-46
2021/10/30 11:30:58;;;;;;;9.87;5.93;;;13.20;99.90;;;;;;5007629;28;20428;-48
2021/10/30 11:33:30;;;;;;;6.23;5.63;;;13.20;99.90;;;;;;5018601;28;20517;-45
2021/10/30 11:36:01;;;;;;;7.53;6.00;;;13.20;99.90;;;;;;5012021;28;20271;-48
2021/10/30 11:38:33;;;;;;;8.70;6.50;;;13.20;99.90;;;;;;5008517;28;20465;-45
2021/10/30 11:41:02;;;;;;;7.13;6.40;;;13.10;99.90;;;;;;5015532;28;20525;-44
2021/10/30 11:43:30;;;;;;;7.27;5.80;;;13.10;99.90;;;;;;5006171;28;20418;-50
2021/10/30 11:46:08;;;;;;;6.97;6.07;;;13.10;99.90;;;;;;5011165;28;20498;-48
2021/10/30 11:48:48;;;;;;;6.30;5.23;;;13.10;99.90;;;;;;5019456;28;20418;-44
2021/10/30 11:51:15;;;;;;;7.63;6.10;;;13.10;99.90;;;;;;5011157;28;20421;-46
2021/10/30 11:53:42;;;;;;;6.33;5.37;;;13.20;99.90;;;;;;5009088;28;20436;-44
2021/10/30 11:56:11;;;;;;;7.43;6.20;;;13.20;99.90;;;;;;5027032;28;20421;-47
2021/10/30 11:58:45;;;;;;;9.53;6.33;;;13.20;99.90;;;;;;5026892;28;20468;-46
2021/10/30 12:01:20;;;;;;;8.93;5.60;;;13.20;99.90;;;;;;5020536;28;20457;-44
2021/10/30 12:03:47;;;;;;;7.53;5.93;;;13.20;99.90;;;;;;5018640;28;20487;-46
2021/10/30 12:06:13;;;;;;;6.10;5.50;;;13.20;99.90;;;;;;5015007;28;20429;-44
2021/10/30 12:08:40;;;;;;;6.80;5.20;;;13.20;99.90;;;;;;5025347;28;20793;-48
2021/10/30 12:11:06;;;;;;;5.90;5.07;;;13.20;99.90;;;;;;5015628;28;20428;-45
2021/10/30 12:13:33;;;;;;;7.33;5.33;;;13.20;99.90;;;;;;5004514;28;20758;-46
2021/10/30 12:16:01;;;;;;;6.23;5.30;;;13.20;99.90;;;;;;5010166;28;20520;-46
2021/10/30 12:18:30;;;;;;;6.33;4.90;;;13.20;99.90;;;;;;5022416;28;20467;-45
2021/10/30 12:20:59;;;;;;;6.57;5.50;;;13.20;99.90;;;;;;5012162;28;20422;-49
2021/10/30 12:23:26;;;;;;;5.57;4.77;;;13.20;99.90;;;;;;4999744;28;20933;-48
2021/10/30 12:26:05;;;;;;;7.43;5.40;;;13.10;99.90;;;;;;5021601;28;20427;-50
2021/10/30 12:28:36;;;;;;;6.20;5.60;;;13.20;99.90;;;;;;5019765;28;20418;-46
2021/10/30 12:31:05;;;;;;;7.20;5.43;;;13.20;99.90;;;;;;5017407;28;20438;-44
2021/10/30 12:33:35;;;;;;;6.80;5.60;;;13.20;99.90;;;;;;5029837;28;20424;-45
2021/10/30 12:36:01;;;;;;;6.10;4.93;;;13.20;99.90;;;;;;5037740;28;20784;-44
2021/10/30 12:38:27;;;;;;;5.93;5.23;;;13.20;99.90;;;;;;5037326;28;20553;-44
2021/10/30 12:40:56;;;;;;;6.17;4.67;;;13.10;99.90;;;;;;5011738;28;20543;-43
2021/10/30 12:43:22;;;;;;;6.10;4.77;;;13.10;99.90;;;;;;5006183;28;20480;-44
2021/10/30 12:45:57;;;;;;;9.10;5.33;;;13.10;99.90;;;;;;5009423;28;21015;-45
2021/10/30 12:48:26;;;;;;;6.17;4.90;;;13.10;99.90;;;;;;5011073;28;21107;-43